Suggestion Search

Define a bounding box (note: it will not wrap North/South over poles). If the range is zero degrees, a bounding box will not be used to constrain the search.

Centered On °   °

Match text in the suggestion title, science rationale or special notes. The search is case-insensitive. % is a wildcard (_ for a single character).

Find
Search

You may select science themes to limit query, otherwise suggestions from all themes will be returned.

Multiple values may be selected (shift + click).

  Rows per page
3,969 records found, displaying 3,401 to 3,500.[First/Prev] 31, 32, 33, 34, 35, 36, 37, 38 [Next/Last]
ID Suggestion Title Latitude Longitude Repeat Created Observation ID
38399 Graben in Tempe Fossae 40.000 287.515 1 2009-08-24 ESP_046751_2205
38397 Possible hydrated minerals in crater rim 6.570 346.646 1 2009-08-24 ESP_028301_1865
38395 South polar residual cap summer mosaic campaign -85.643 33.841 1 2009-08-24 ESP_023237_0945
38393 Landforms in Mariner 9 image -64.569 24.232 1 2009-08-24
38391 Crater drainage -6.169 42.760 1 2009-08-24 ESP_026611_1740
38389 Tongue-shaped features southwest of Hellas Planitia -47.745 47.965 1 2009-08-24 ESP_015917_1320
38387 Dunes on the floor of Nili Patera 6.830 68.498 1 2009-08-24 ESP_057005_1870
38385 Craters in Ausonia Montes -26.598 99.529 1 2009-08-24 ESP_016126_1530
38383 Gullies formed below overhangs in depression wall in MOC R15-00704 -38.576 183.786 1 2009-08-24 ESP_023494_1410
38381 South polar residual cap summer mosaic campaign -87.282 316.506 1 2009-08-24 ESP_032327_0925
38379 OMEGA olivine detection -8.060 316.019 1 2009-08-24
38348 Possible layered alunite-kaolinite-rich terrain in Cross Crater -30.460 202.700 1 2009-08-21 ESP_021924_1490
38340 Her Desher Vallis -24.740 311.780 1 2009-08-21 ESP_020562_1550
38325 Search for Mars Polar Lander -75.904 164.631 1 2009-08-19 ESP_056857_1040
38323 Search for Mars Polar Lander -76.066 165.324 1 2009-08-19
38118 Possible sulfates in Ius Chasma -7.879 276.730 1 2009-08-11 ESP_020550_1720
38116 Exposed strata near Melas region wall -13.219 289.640 1 2009-08-11 ESP_021789_1665
38114 Sinus Meridiani stratigraphy -0.131 2.985 1 2009-08-11 ESP_021984_1800
38112 Possible hydrate-rich terrain in Ius Chasma -6.810 274.040 1 2009-08-11 ESP_020194_1730
37828 Light-toned material in crater in Terra Cimmeria -35.775 166.613 1 2009-08-05 ESP_021543_1440
37334 Planum Australe region -85.569 4.320 4 2009-07-15
37332 Planum Australe region -85.569 4.320 4 2009-07-15
37330 Planum Australe region -85.569 4.320 4 2009-07-15
36973 Light-toned material in crater in Terra Cimmeria -35.775 166.613 1 2009-06-22 ESP_013750_1440
36971 Layered alunite-kaolinite deposit in Cross Crater -30.460 202.700 1 2009-06-22 ESP_013775_1490
36969 South polar residual cap monitoring -86.962 266.050 1 2009-06-22 ESP_013775_0930
36967 Her Desher Vallis -24.740 311.780 1 2009-06-22 ESP_013771_1550
36965 Fan and polygonal features within south mid-latitude crater -38.210 144.374 1 2009-06-22 ESP_013764_1415
36963 Possible sulfates in Ius Chasma -7.879 276.730 1 2009-06-22 ESP_013759_1720
36961 Monitor defrosting patterns on ridges -81.460 296.278 1 2009-06-22 ESP_013759_0985
36959 Terrain northwest of Hellas Planitia -25.510 56.080 1 2009-06-22 ESP_013754_1540
36957 Terrain in Hesperia Planum -16.600 109.130 1 2009-06-22 ESP_013752_1630
36955 Thyles Rupes -68.501 145.000 1 2009-06-22 ESP_013751_1115
36953 Ultimi Scopuli -78.725 183.901 1 2009-06-22 ESP_013750_1010
36951 Ismenius Lacus phyllosilicates in layered units 33.554 16.636 1 2009-06-22 ESP_013742_2140
36949 Lobate deposit near Reull Vallis -42.545 107.609 1 2009-06-22 ESP_013739_1370
36947 Large phyllosilicate exposure in northwest Hellas region -24.269 45.860 1 2009-06-22 ESP_013728_1555
36945 Monitor seasonal changes at a south polar cracked and gullied site -81.685 66.280 1 2009-06-22 ESP_013728_0980
36943 Terby region landforms -26.655 73.500 1 2009-06-22 ESP_013727_1530
36941 Noctis Labyrinthus -7.777 261.741 1 2009-06-22 ESP_013720_1720
36939 Exposed strata near Melas region wall -13.219 289.640 1 2009-06-22 ESP_013719_1665
36937 Candidate new impact site formed between November 2007 and February 2009 11.476 255.007 1 2009-06-22 ESP_013707_1915
36935 Acidalia region buttes 22.750 335.130 1 2009-06-22 ESP_013704_2030
36933 Sinus Meridiani stratigraphy -0.131 2.985 1 2009-06-22 ESP_013703_1800
36931 Possible phyllosilicates-rich terrain -20.711 61.590 1 2009-06-22 ESP_013701_1590
36929 Impact crater in Hesperia Planum -23.020 116.870 1 2009-06-22 ESP_013699_1565
36927 Jeans Crater dune field seasonal monitoring -69.624 153.255 1 2009-06-22 ESP_013698_1100
36925 Candidate new impact site formed between October 2002 and October 2004 25.838 247.613 1 2009-06-22 ESP_013694_2060
36923 Phyllosilicates on crater rim in East Argyre region -47.661 339.410 1 2009-06-22 ESP_013691_1320
36921 Putative paleolake -5.750 28.170 1 2009-06-22 ESP_013689_1740
36881 Possible hydrate-rich terrain in Ius Chasma -6.810 274.040 1 2009-06-15 ESP_013680_1730
36879 Light toned outcrops near Coimbra Crater 3.261 354.320 1 2009-06-15 ESP_013677_1835
36877 Buttes and mesas and other landforms in eastern Arabia Terra 20.487 46.458 1 2009-06-15 ESP_013675_2005
36875 Possible hydrate-rich terrain in Syrtis Major -0.500 77.420 1 2009-06-15 ESP_013674_1795
36873 South mid-latitude crater wall -55.778 220.976 1 2009-06-15 ESP_013669_1240
36871 Candidate new impact site formed between May 2005 and July 2007 -9.008 236.365 1 2009-06-15 ESP_013655_1710
36869 Phyllosilicates along a scarp in northwest Argyre Planitia -39.160 295.610 1 2009-06-15 ESP_013653_1405
36867 South polar seasonal outlier -83.326 347.926 1 2009-06-15 ESP_013652_0965
36865 Candidate fresh impact site formed between August 2005 and May 2009 -5.246 258.665 1 2009-06-15 ESP_013641_1745
36863 Candidate new impact site formed between September 2004 and January 2008 25.424 282.584 1 2009-06-15 ESP_013640_2055
36861 Arabia Terra crater or escarpment 17.161 4.510 1 2009-06-15 ESP_013637_1975
36859 Candidate fresh impact site formed between May 2005 and May 2009 -5.730 226.410 1 2009-06-15 ESP_013629_1740
36857 Survey of Claritas Fossae scarp -27.858 256.800 1 2009-06-15 ESP_013628_1520
36855 Arabia Terra crater or escarpment IMPACT PROCESSES 24.461 358.490 1 2009-06-15 ESP_013624_2045
36853 Possible olivine on floor of crater in northern Hellas Planitia -22.100 59.720 1 2009-06-15 ESP_023393_1575
36851 Possible phyllosilicate-rich terrain -18.999 87.000 1 2009-06-15 ESP_028126_1610
36849 Circular feature within south polar layered terrain scarp -84.353 282.425 1 2009-06-15 ESP_013615_0955
36847 phyllosilicate in crater ejecta in central Nili Fossae 21.680 75.520 1 2009-06-15
36845 Wavy polar layers -80.599 129.900 1 2009-06-15 ESP_022178_0995
36843 Gullied crater wall -41.950 193.704 1 2009-06-15 ESP_013604_1375
36841 Planum Australe region -85.569 4.320 4 2009-06-15 ESP_013603_0855
36813 Search for Mars Polar Lander -76.729 165.918 1 2009-06-10 ESP_013724_1030
36811 Search for Mars Polar Lander -76.805 164.237 1 2009-06-10 ESP_013711_1030
36000 Phyllosilicate and possible chlorite prehnite northwest of Hellas region -26.240 56.450 1 2009-05-20 ESP_013477_1535
35743 Channel cut into fan in Eos Chasma in MOC image R06-01376 -13.237 317.773 1 2009-02-02 ESP_012439_1665
35322 Possible olivine-rich terrain in ejecta of a gullied crater -36.830 167.000 1 2009-04-17 ESP_013117_1430
35273 1-kilometer diameter impact crater on Alba Mons southwest flank 38.117 243.553 1 2009-04-14 ESP_012837_2185
35271 Valles Marineris phyllosilicate and sulfate deposits -7.900 276.330 1 2009-04-14 ESP_012836_1720
35269 Valles Marineris phyllosilicate deposit -10.562 314.105 1 2009-04-14 ESP_012861_1695
35267 Crater floor and terrace in Terra Sirenum -32.260 247.110 1 2009-04-14 ESP_012824_1475
35265 Possible chloride salts in Noachis Terra -28.580 338.920 1 2009-04-14 ESP_012847_1510
35263 Possible chloride salts in Icaria Planum -39.350 235.490 1 2009-04-14 ESP_012864_1405
35261 Sulfate-rich layers in crater wall in Tyrrhena Terra -15.904 76.059 1 2009-04-14 ESP_012817_1640
35259 South polar cracked and gullied site -81.691 66.348 1 2009-04-14 ESP_012871_0980
35257 South polar cracked and gullied site -81.691 66.348 1 2009-04-14 ESP_012805_0980
35255 South polar cracked and gullied site -81.691 66.348 1 2009-04-14 ESP_012863_0820
35253 South polar cracked and gullied site -81.691 66.348 1 2009-04-14 ESP_012797_0820
35251 Possible evaporites near Coprates region fan -15.010 300.020 1 2009-04-14 ESP_012822_1650
35249 West Olympus Mons 21.710 222.490 1 2009-04-14 ESP_012851_2020
35247 Possible olivine-rich terrain from impact on Herschel Crater floor -12.840 129.520 1 2009-04-14 ESP_012815_1670
35245 Possible olivine-rich terrain -39.920 295.817 1 2009-04-14 ESP_012875_1395
35243 Possible hydrate-rich terrain in Noctis Labyrinthus -6.450 266.540 1 2009-04-14 ESP_012810_1735
35241 Possible hydrate-rich terrain in Promethei Planum -79.940 60.183 1 2009-04-14 ESP_012837_0800
35239 Nilosyrtis dichotomy boundary scarp or crater 36.160 30.700 1 2009-04-14 ESP_012858_2165
35237 Atlantis Chaos region -33.845 181.946 1 2009-04-14 ESP_012800_1460
35235 Possible pyroxene deposit in Tyrrhena Terra 1.560 96.086 1 2009-04-14 ESP_012803_1815
35233 Interesting phyllosilicate detection in northwest Hellas region -26.270 60.292 1 2009-04-14 ESP_012844_1535
35231 Layers in Noctis region pit -10.850 264.330 1 2009-04-14 ESP_021869_1690
35229 Impact crater in Tempe Terra 33.518 307.952 1 2009-04-14 ESP_012861_2140
35227 Hydraotes Chaos blocks 0.183 324.856 1 2009-04-14 ESP_012821_1800

Each suggestion is given a unique ID. A stereo suggestion will be made into a pair at the discretion of the Science Theme Lead.

Suggestion title.

Latitudes are expressed in planetocentric degrees.

Longitude are measured in degrees and range east from 0 to 360.

1 for a single suggestion, STEREO for a stereo suggestion, otherwise the number of suggestions in a seasonal or other repeat set.

The date on which the suggestion was created.

If the suggestion has been retired, a link to the observation page.

The username of the suggester.